Time;durP1;ratioP1;P1;durP2;ratioP2;P2;SDS_P1;SDS_P2;PMS_P1;PMS_P2;Temp;Humidity;BMP_temperature;BMP_pressure;BME280_temperature;BME280_humidity;BME280_pressure;Samples;Min_cycle;Max_cycle;Signal;HPM_P1;HPM_P2
2023/06/01 07:23:18;;;;;;;11.32;9.68;;;;;;;-145.79;57.05;78182.81;5279306;28;20897;-72
2023/06/01 07:25:50;;;;;;;15.15;10.02;;;;;;;-145.79;57.05;78182.81;5279587;28;20048;-71
2023/06/01 07:28:26;;;;;;;13.38;10.05;;;;;;;-145.79;56.61;78165.84;5280038;28;20098;-72
2023/06/01 07:30:58;;;;;;;11.27;9.30;;;;;;;-145.79;56.50;78136.19;5278215;28;20029;-73
2023/06/01 07:33:29;;;;;;;13.73;9.32;;;;;;;-145.79;56.78;78140.41;5278976;28;20040;-72
2023/06/01 07:36:01;;;;;;;11.15;9.48;;;;;;;-145.79;56.11;78117.09;5279717;28;20083;-72
2023/06/01 07:38:32;;;;;;;11.38;9.40;;;;;;;-145.79;55.87;78117.09;5279039;28;20016;-72
2023/06/01 07:41:04;;;;;;;11.05;8.77;;;;;;;-145.79;55.93;78102.25;5279468;28;20116;-72
2023/06/01 07:43:37;;;;;;;14.38;11.18;;;;;;;-145.79;55.63;78119.22;5278747;28;20029;-72
2023/06/01 07:46:08;;;;;;;14.20;10.90;;;;;;;-145.79;55.91;78144.66;5279525;28;20099;-72
2023/06/01 07:48:40;;;;;;;13.10;9.25;;;;;;;-145.79;55.87;78134.06;5267360;28;20051;-72
2023/06/01 07:51:11;;;;;;;16.02;10.32;;;;;;;-145.79;55.25;78123.44;5258542;28;20049;-70
2023/06/01 07:53:43;;;;;;;12.43;10.32;;;;;;;-145.79;55.67;78119.22;5258802;28;20032;-70
2023/06/01 07:56:14;;;;;;;13.52;10.38;;;;;;;-145.79;55.13;78108.63;5258359;28;20035;-70
2023/06/01 07:58:46;;;;;;;13.15;9.73;;;;;;;-145.79;54.79;78102.25;5258008;28;20026;-70
2023/06/01 08:01:17;;;;;;;15.43;9.63;;;;;;;-145.79;54.79;78076.81;5258226;28;20039;-71
2023/06/01 08:03:50;;;;;;;13.50;10.48;;;;;;;-145.79;53.57;78085.28;5258367;28;20140;-71
2023/06/01 08:06:22;;;;;;;11.05;9.32;;;;;;;-145.79;54.33;78061.97;5272644;28;20036;-71
2023/06/01 08:08:53;;;;;;;12.95;10.77;;;;;;;-145.79;53.94;78059.84;5278263;28;20024;-71
2023/06/01 08:11:25;;;;;;;14.45;10.60;;;;;;;-145.79;53.75;78051.38;5278810;28;20078;-72
2023/06/01 08:13:59;;;;;;;11.68;9.88;;;;;;;-145.79;53.93;78038.66;5278084;28;20115;-73
2023/06/01 08:16:31;;;;;;;14.95;10.90;;;;;;;-145.79;53.83;78034.41;5278482;28;20025;-73
2023/06/01 08:19:03;;;;;;;12.50;9.25;;;;;;;-145.79;54.02;78006.84;5277981;28;20027;-72
2023/06/01 08:21:34;;;;;;;14.25;10.38;;;;;;;-145.79;53.70;77994.13;5274923;28;20400;-73
2023/06/01 08:24:06;;;;;;;13.30;9.73;;;;;;;-145.79;52.78;77987.78;5275572;28;20030;-72
2023/06/01 08:26:37;;;;;;;13.85;9.50;;;;;;;-145.79;51.89;77964.47;5275733;28;20063;-70
2023/06/01 08:29:08;;;;;;;12.32;8.98;;;;;;;-145.79;51.01;77987.78;5276528;28;20045;-70
2023/06/01 08:31:40;;;;;;;12.60;10.05;;;;;;;-145.79;51.13;77945.38;5275943;28;20013;-71
2023/06/01 08:34:11;;;;;;;9.88;8.70;;;;;;;-145.79;50.85;77945.38;5261096;28;20080;-74
2023/06/01 08:36:42;;;;;;;14.10;9.90;;;;;;;-145.79;50.59;77947.50;5247406;28;20053;-74
2023/06/01 08:39:23;;;;;;;13.43;9.65;;;;;;;-145.79;52.20;77924.19;5247007;28;20080;-75
2023/06/01 08:42:08;;;;;;;15.60;9.88;;;;;;;-145.79;51.47;77900.84;5259573;28;20029;-75
2023/06/01 08:44:41;;;;;;;14.20;9.88;;;;;;;-145.79;50.80;77907.22;5240925;28;20044;-68
2023/06/01 08:47:13;;;;;;;14.65;10.13;;;;;;;-145.79;50.68;77886.00;5248597;28;20024;-67
2023/06/01 08:49:45;;;;;;;13.73;9.80;;;;;;;-145.79;50.70;77902.97;5262719;28;20060;-65
2023/06/01 08:52:22;;;;;;;13.52;10.95;;;;;;;-145.79;50.89;77894.50;5250249;28;20456;-67
2023/06/01 08:54:55;;;;;;;12.45;9.85;;;;;;;-145.79;50.79;77877.53;5242841;28;20048;-67
2023/06/01 08:57:27;;;;;;;12.23;10.15;;;;;;;-145.79;50.95;77898.75;5259515;28;20408;-67
2023/06/01 08:59:59;;;;;;;16.48;10.73;;;;;;;-145.79;50.14;77886.00;5263540;28;20047;-65
2023/06/01 09:02:30;;;;;;;13.57;10.27;;;;;;;-145.79;50.57;77858.47;5263098;28;20024;-66
2023/06/01 09:05:02;;;;;;;13.50;10.30;;;;;;;-145.79;50.19;77858.47;5264184;28;20448;-66
2023/06/01 09:07:34;;;;;;;15.20;10.60;;;;;;;-145.79;50.19;77866.94;5262008;28;20115;-66
2023/06/01 09:10:08;;;;;;;14.82;10.80;;;;;;;-145.79;50.09;77866.94;5263659;28;20029;-67
2023/06/01 09:12:53;;;;;;;16.13;10.80;;;;;;;-145.79;50.10;77869.06;5263278;28;20052;-68
2023/06/01 09:15:25;;;;;;;12.80;10.95;;;;;;;-145.79;49.59;77873.31;5245559;28;20360;-68
2023/06/01 09:18:10;;;;;;;13.95;9.80;;;;;;;-145.79;50.34;77835.13;5243421;28;20030;-68
2023/06/01 09:20:41;;;;;;;14.85;10.57;;;;;;;-145.79;50.33;77830.91;5247075;28;20142;-66
2023/06/01 09:23:26;;;;;;;13.52;10.73;;;;;;;-145.79;50.03;77807.59;5248919;28;20045;-67
2023/06/01 09:26:07;;;;;;;14.48;11.23;;;;;;;-145.79;50.10;77796.97;5263943;28;20067;-68
2023/06/01 09:28:58;;;;;;;15.20;11.85;;;;;;;-145.79;49.70;77805.47;5255270;28;20033;-67
2023/06/01 09:31:39;;;;;;;12.90;10.35;;;;;;;-145.79;50.49;77813.94;5262778;28;20033;-67
2023/06/01 09:34:19;;;;;;;14.10;11.48;;;;;;;-145.79;49.74;77805.47;5262494;28;20048;-67
2023/06/01 09:36:53;;;;;;;14.77;11.32;;;;;;;-145.79;50.43;77824.53;5262657;28;20094;-66
2023/06/01 09:39:25;;;;;;;16.87;11.80;;;;;;;-145.79;50.34;77833.03;5261437;28;20104;-67
2023/06/01 09:41:58;;;;;;;13.80;11.02;;;;;;;-145.79;49.86;77809.69;5262867;28;20111;-67
2023/06/01 09:44:32;;;;;;;16.55;12.27;;;;;;;-145.79;49.48;77801.22;5253891;28;20044;-66
2023/06/01 09:47:05;;;;;;;15.82;12.07;;;;;;;-145.79;49.34;77780.03;5247401;28;20031;-68
2023/06/01 09:49:41;;;;;;;14.85;12.35;;;;;;;-145.79;49.40;77780.03;5245852;28;20116;-68
2023/06/01 09:52:14;;;;;;;;;;;;;;;-145.79;49.23;77746.09;5245157;28;20346;-69
2023/06/01 09:54:48;;;;;;;15.45;11.57;;;;;;;-145.79;49.11;77741.88;5245591;28;19916;-69
2023/06/01 09:57:25;;;;;;;19.17;13.38;;;;;;;-145.79;49.14;77733.38;5244672;28;20470;-67
2023/06/01 09:59:57;;;;;;;17.17;12.50;;;;;;;-145.79;48.49;77729.16;5260315;28;20021;-68
2023/06/01 10:02:31;;;;;;;16.02;12.18;;;;;;;-145.79;48.35;77765.19;5262750;28;20021;-68
2023/06/01 10:05:02;;;;;;;13.52;11.57;;;;;;;-145.79;48.46;77763.06;5257763;28;20029;-67
2023/06/01 10:07:37;;;;;;;14.60;11.98;;;;;;;-145.79;48.20;77794.88;5247758;28;20025;-68
2023/06/01 10:10:13;;;;;;;14.55;10.95;;;;;;;-145.79;48.49;77754.59;5244862;28;20024;-68
2023/06/01 10:12:45;;;;;;;19.10;15.65;;;;;;;-145.79;48.07;77767.31;5261634;28;20047;-71
2023/06/01 10:15:16;;;;;;;21.10;17.50;;;;;;;-145.79;48.26;77748.22;5262244;28;20029;-68
2023/06/01 10:17:49;;;;;;;20.65;16.33;;;;;;;-145.79;48.30;77737.63;5252107;28;20030;-68
2023/06/01 10:20:21;;;;;;;13.63;11.90;;;;;;;-145.79;48.17;77707.94;5241915;28;20036;-68
2023/06/01 10:22:53;;;;;;;13.30;11.90;;;;;;;-145.79;47.85;77695.22;5258524;28;20045;-68
2023/06/01 10:25:25;;;;;;;21.27;11.75;;;;;;;-145.79;48.08;77695.22;5261365;28;20033;-69
2023/06/01 10:28:07;;;;;;;14.68;11.60;;;;;;;-145.79;47.15;77671.91;5262519;28;20047;-68
2023/06/01 10:30:39;;;;;;;15.52;11.05;;;;;;;-145.79;46.80;77657.06;5262061;28;20057;-68
2023/06/01 10:33:10;;;;;;;15.23;11.10;;;;;;;-145.79;46.17;77642.25;5259316;28;20102;-68
2023/06/01 10:35:42;;;;;;;14.20;11.15;;;;;;;-145.79;45.95;77621.03;5262248;28;20383;-69
2023/06/01 10:38:13;;;;;;;12.82;11.27;;;;;;;-145.79;46.21;77621.03;5261444;28;20357;-68
2023/06/01 10:40:46;;;;;;;15.02;10.98;;;;;;;-145.79;46.11;77627.41;5260576;28;20029;-69
2023/06/01 10:43:35;;;;;;;13.73;11.25;;;;;;;-145.79;46.21;77589.25;5251712;28;20128;-68
2023/06/01 10:46:36;;;;;;;14.25;12.00;;;;;;;-145.79;46.07;77614.69;5241325;28;20033;-68
2023/06/01 10:49:08;;;;;;;14.40;10.85;;;;;;;-145.79;45.47;77601.97;5243599;28;20040;-69
2023/06/01 10:51:39;;;;;;;13.23;11.20;;;;;;;-145.79;45.42;77599.84;5261563;28;20029;-69
2023/06/01 10:54:30;;;;;;;16.98;12.27;;;;;;;-145.79;45.74;77576.53;5260796;28;20025;-69
2023/06/01 10:57:31;;;;;;;13.38;11.52;;;;;;;-145.79;45.69;77568.03;5247498;28;20036;-70
2023/06/01 11:00:19;;;;;;;12.48;10.10;;;;;;;-145.79;46.37;77555.31;5240105;28;20037;-69
2023/06/01 11:03:02;;;;;;;18.63;12.13;;;;;;;-145.79;44.99;77557.44;5241041;28;20136;-72
2023/06/01 11:05:47;;;;;;;16.05;12.60;;;;;;;-145.79;45.25;77563.81;5241693;28;20036;-68
2023/06/01 11:08:21;;;;;;;14.15;12.55;;;;;;;-145.79;45.74;77534.13;5249221;28;20031;-68
2023/06/01 11:10:55;;;;;;;15.70;11.80;;;;;;;-145.79;45.18;77525.66;5261573;28;20128;-68
2023/06/01 11:13:37;;;;;;;13.73;11.40;;;;;;;-145.79;43.81;77532.00;5248179;28;20052;-69
2023/06/01 11:16:18;;;;;;;13.82;11.35;;;;;;;-145.79;43.71;77548.97;5243964;28;20025;-69
2023/06/01 11:18:58;;;;;;;14.40;10.60;;;;;;;-145.79;44.63;77515.06;5258892;28;20060;-69
2023/06/01 11:21:42;;;;;;;13.88;12.00;;;;;;;-145.79;44.33;77512.94;5253374;28;20128;-69
2023/06/01 11:24:16;;;;;;;15.93;11.40;;;;;;;-145.79;43.65;77523.53;5244342;28;20029;-69
2023/06/01 11:26:49;;;;;;;13.27;11.60;;;;;;;-145.79;43.93;77489.63;5256626;28;20028;-69
2023/06/01 11:29:23;;;;;;;16.08;14.45;;;;;;;-145.79;44.28;77491.75;5252565;28;20017;-69
2023/06/01 11:31:57;;;;;;;17.00;13.90;;;;;;;-145.79;44.53;77502.34;5243671;28;20513;-65
2023/06/01 11:34:45;;;;;;;14.68;11.27;;;;;;;-145.79;44.62;77468.41;5256987;28;20075;-68
2023/06/01 11:37:18;;;;;;;14.13;12.23;;;;;;;-145.79;44.85;77474.78;5259168;28;20034;-67
2023/06/01 11:39:50;;;;;;;15.63;12.45;;;;;;;-145.79;44.59;77445.09;5250292;28;20025;-67
2023/06/01 11:42:22;;;;;;;14.82;12.20;;;;;;;-145.79;44.75;77483.25;5261337;28;20025;-66
2023/06/01 11:44:58;;;;;;;21.00;13.68;;;;;;;-145.79;45.05;77479.03;5243699;28;20017;-67
2023/06/01 11:47:30;;;;;;;15.75;13.85;;;;;;;-145.79;44.78;77453.59;5241042;28;20404;-67
2023/06/01 11:50:02;;;;;;;30.02;23.60;;;;;;;-145.79;45.20;77440.88;5241227;28;20382;-67
2023/06/01 11:52:34;;;;;;;17.95;12.00;;;;;;;-145.79;44.48;77434.50;5240384;28;20025;-67
2023/06/01 11:55:06;;;;;;;16.85;13.80;;;;;;;-145.79;43.82;77417.53;5246847;28;20090;-67
2023/06/01 11:57:41;;;;;;;12.50;10.93;;;;;;;-145.79;43.45;77394.22;5254344;28;20036;-67
2023/06/01 12:00:13;;;;;;;16.90;11.40;;;;;;;-145.79;43.07;77404.84;5252664;28;20037;-65
2023/06/01 12:02:45;;;;;;;11.93;10.63;;;;;;;-145.79;43.40;77373.03;5242029;28;20037;-67
2023/06/01 12:05:16;;;;;;;14.75;10.57;;;;;;;-145.79;43.00;77353.97;5254831;28;20359;-66
2023/06/01 12:07:53;;;;;;;15.55;11.15;;;;;;;-145.79;42.90;77358.19;5240542;28;20026;-67
2023/06/01 12:10:24;;;;;;;13.68;10.32;;;;;;;-145.79;42.59;77379.41;5247832;28;20030;-66
2023/06/01 12:12:57;;;;;;;13.82;9.50;;;;;;;-145.79;43.24;77368.78;5259978;28;20487;-67
2023/06/01 12:15:28;;;;;;;14.30;9.80;;;;;;;-145.79;43.24;77385.75;5264975;28;20055;-66
2023/06/01 12:17:59;;;;;;;10.40;8.52;;;;;;;-145.79;42.81;77330.66;5263139;28;20139;-66
2023/06/01 12:20:32;;;;;;;11.25;9.52;;;;;;;-145.79;42.23;77322.16;5254516;28;20049;-66
2023/06/01 12:23:10;;;;;;;11.80;9.73;;;;;;;-145.79;41.66;77322.16;5244015;28;20527;-66
2023/06/01 12:25:52;;;;;;;10.68;8.10;;;;;;;-145.79;41.69;77298.84;5243417;28;20028;-67
2023/06/01 12:28:29;;;;;;;10.00;9.00;;;;;;;-145.79;42.25;77300.97;5248132;28;20025;-66
2023/06/01 12:31:11;;;;;;;11.88;9.07;;;;;;;-145.79;41.69;77288.25;5243806;28;20026;-66
2023/06/01 12:33:45;;;;;;;12.90;9.23;;;;;;;-145.79;42.16;77271.28;5242682;28;20034;-68
2023/06/01 12:36:34;;;;;;;13.18;9.38;;;;;;;-145.79;41.89;77247.97;5244188;28;20018;-66
2023/06/01 12:39:06;;;;;;;13.35;8.95;;;;;;;-145.79;40.69;77233.16;5244778;28;20025;-67
2023/06/01 12:41:47;;;;;;;10.77;7.72;;;;;;;-145.79;40.76;77228.91;5243568;28;20032;-68
2023/06/01 12:44:20;;;;;;;14.43;8.35;;;;;;;-145.79;40.26;77203.47;5244182;28;20022;-68
2023/06/01 12:46:59;;;;;;;10.82;9.13;;;;;;;-145.79;40.75;77228.91;5254419;28;20022;-68
2023/06/01 12:49:30;;;;;;;10.88;8.85;;;;;;;-145.79;40.59;77243.75;5244056;28;20033;-67
2023/06/01 12:52:02;;;;;;;12.55;9.15;;;;;;;-145.79;39.85;77218.31;5254355;28;20031;-68
2023/06/01 12:54:33;;;;;;;8.55;7.55;;;;;;;-145.79;39.55;77211.94;5252620;28;20021;-68
2023/06/01 12:57:12;;;;;;;9.07;8.15;;;;;;;-145.79;39.72;77195.00;5263078;28;20025;-68
2023/06/01 12:59:44;;;;;;;12.25;7.65;;;;;;;-145.79;39.59;77192.88;5248958;28;20113;-69
2023/06/01 13:02:15;;;;;;;9.98;7.63;;;;;;;-145.79;39.11;77188.63;5242139;28;20104;-68
2023/06/01 13:04:47;;;;;;;23.65;21.33;;;;;;;-145.79;38.64;77203.47;5246697;28;20441;-67
2023/06/01 13:07:18;;;;;;;13.35;10.02;;;;;;;-145.79;39.00;77203.47;5243330;28;20384;-68
2023/06/01 13:09:49;;;;;;;10.15;8.05;;;;;;;-145.79;38.82;77182.28;5260093;28;20268;-69
2023/06/01 13:12:21;;;;;;;9.25;7.30;;;;;;;-145.79;38.71;77165.31;5262874;28;20027;-67
2023/06/01 13:14:52;;;;;;;9.68;7.00;;;;;;;-145.79;38.57;77135.66;5262511;28;20543;-68
2023/06/01 13:17:23;;;;;;;10.05;7.50;;;;;;;-145.79;38.92;77118.69;5256278;28;20091;-67
2023/06/01 13:19:55;;;;;;;10.15;7.78;;;;;;;-145.79;38.75;77112.31;5249719;28;20029;-67
2023/06/01 13:22:26;;;;;;;8.00;7.20;;;;;;;-145.79;37.91;77118.69;5262658;28;20456;-67
2023/06/01 13:24:58;;;;;;;8.77;7.40;;;;;;;-145.79;37.58;77108.09;5264085;28;20021;-68
2023/06/01 13:27:29;;;;;;;12.00;7.20;;;;;;;-145.79;38.02;77114.44;5259187;28;20033;-67
2023/06/01 13:30:03;;;;;;;13.30;12.02;;;;;;;-145.79;37.80;77120.81;5242511;28;21008;-67
2023/06/01 13:32:35;;;;;;;7.57;6.87;;;;;;;-145.79;38.05;77086.91;5242387;28;20040;-68
2023/06/01 13:35:06;;;;;;;10.10;7.75;;;;;;;-145.79;38.76;77086.91;5242131;28;20021;-68
2023/06/01 13:37:38;;;;;;;9.80;6.90;;;;;;;-145.79;38.72;77063.59;5242558;28;20064;-68
2023/06/01 13:40:10;;;;;;;12.30;7.53;;;;;;;-145.79;38.41;77040.25;5255568;28;20055;-68
2023/06/01 13:42:41;;;;;;;10.20;7.72;;;;;;;-145.79;38.42;77052.97;5241672;28;20068;-68
2023/06/01 13:45:13;;;;;;;11.13;7.18;;;;;;;-145.79;37.80;77059.34;5250963;28;20075;-68
2023/06/01 13:47:45;;;;;;;8.00;7.00;;;;;;;-145.79;38.09;77065.69;5245485;28;20069;-69
2023/06/01 13:50:17;;;;;;;8.88;7.47;;;;;;;-145.79;37.64;77093.25;5242094;28;20103;-69
2023/06/01 13:52:48;;;;;;;11.90;7.53;;;;;;;-145.79;37.96;77067.81;5249759;28;20025;-69
2023/06/01 13:55:19;;;;;;;10.57;7.28;;;;;;;-145.79;38.42;77048.75;5263260;28;20037;-68
2023/06/01 13:57:53;;;;;;;15.02;7.13;;;;;;;-145.79;38.51;77065.69;5249636;28;20032;-68
2023/06/01 14:00:27;;;;;;;12.57;6.20;;;;;;;-145.79;38.38;77040.25;5245811;28;20404;-69
2023/06/01 14:02:58;;;;;;;9.02;5.60;;;;;;;-145.79;38.14;77008.47;5255880;28;20029;-69
2023/06/01 14:05:30;;;;;;;10.18;5.18;;;;;;;-145.79;38.05;76991.53;5260132;28;20021;-68
2023/06/01 14:08:04;;;;;;;7.57;5.78;;;;;;;-145.79;37.30;77006.34;5241995;28;20106;-69
2023/06/01 14:10:36;;;;;;;7.35;5.60;;;;;;;-145.79;37.72;77004.25;5241016;28;20029;-68
2023/06/01 14:13:07;;;;;;;8.13;5.50;;;;;;;-145.79;37.97;77023.31;5241897;28;20022;-69
2023/06/01 14:15:38;;;;;;;8.45;5.15;;;;;;;-145.79;37.94;77004.25;5241896;28;20025;-68
2023/06/01 14:18:10;;;;;;;7.90;5.50;;;;;;;-145.79;38.32;77019.06;5256154;28;20052;-69
2023/06/01 14:20:41;;;;;;;9.05;5.22;;;;;;;-145.79;38.44;77004.25;5257362;28;20025;-70
2023/06/01 14:23:12;;;;;;;9.80;5.43;;;;;;;-145.79;38.48;77031.78;5241782;28;20188;-67
2023/06/01 14:25:45;;;;;;;7.50;4.55;;;;;;;-145.79;38.63;77040.25;5240846;28;20091;-66
2023/06/01 14:28:23;;;;;;;8.38;4.47;;;;;;;-145.79;38.01;77002.13;5241703;28;20068;-67
2023/06/01 14:30:54;;;;;;;8.07;4.82;;;;;;;-145.79;37.65;77006.34;5241008;28;20022;-66
2023/06/01 14:33:25;;;;;;;13.43;10.73;;;;;;;-145.79;37.10;77033.91;5240720;28;20026;-66
2023/06/01 14:35:56;;;;;;;7.03;4.40;;;;;;;-145.79;37.36;77031.78;5247440;28;20047;-67
2023/06/01 14:38:28;;;;;;;7.65;4.13;;;;;;;-145.79;37.02;77000.00;5254784;28;20080;-67
2023/06/01 14:40:59;;;;;;;9.60;4.80;;;;;;;-145.79;37.40;76985.16;5241236;28;20021;-67
2023/06/01 14:43:30;;;;;;;10.63;6.28;;;;;;;-145.79;37.92;77004.25;5248094;28;20027;-67
2023/06/01 14:46:02;;;;;;;6.80;4.43;;;;;;;-145.79;37.89;77004.25;5243667;28;20424;-69
2023/06/01 14:48:33;;;;;;;7.43;4.75;;;;;;;-145.79;38.51;77031.78;5240923;28;20034;-70
2023/06/01 14:51:05;;;;;;;8.10;5.18;;;;;;;-145.79;38.69;77033.91;5243062;28;20531;-70
2023/06/01 14:53:36;;;;;;;7.30;5.20;;;;;;;-145.79;39.18;77080.53;5241531;28;20036;-69
2023/06/01 14:56:09;;;;;;;11.35;8.82;;;;;;;-145.79;39.25;77061.47;5242765;28;20095;-69
2023/06/01 14:58:40;;;;;;;8.27;5.20;;;;;;;-145.79;38.74;77012.72;5262155;28;20428;-68
2023/06/01 15:01:11;;;;;;;7.85;5.22;;;;;;;-145.79;38.98;77048.75;5245815;28;20096;-68
2023/06/01 15:03:43;;;;;;;7.43;5.45;;;;;;;-145.79;39.43;77072.06;5252779;28;20032;-69
2023/06/01 15:06:14;;;;;;;6.80;4.20;;;;;;;-145.79;39.77;77080.53;5262025;28;20035;-71
2023/06/01 15:08:45;;;;;;;8.55;4.70;;;;;;;-145.79;39.84;77089.00;5260539;28;20170;-70
2023/06/01 15:11:17;;;;;;;9.57;8.57;;;;;;;-145.79;39.80;77089.00;5261233;28;20423;-70
2023/06/01 15:13:48;;;;;;;8.90;5.45;;;;;;;-145.79;39.56;77110.22;5257871;28;20021;-70
2023/06/01 15:16:19;;;;;;;5.78;5.00;;;;;;;-145.79;40.33;77142.00;5256143;28;20032;-69
2023/06/01 15:18:51;;;;;;;7.28;4.50;;;;;;;-145.79;40.50;77118.69;5254051;28;20017;-68
2023/06/01 15:21:22;;;;;;;7.65;4.50;;;;;;;-145.79;40.53;77122.94;5260002;28;20394;-69
2023/06/01 15:23:53;;;;;;;6.97;4.50;;;;;;;-145.79;40.75;77150.47;5240409;28;20029;-69
2023/06/01 15:26:24;;;;;;;8.65;5.65;;;;;;;-145.79;41.15;77192.88;5241124;28;20025;-68
2023/06/01 15:28:56;;;;;;;6.95;5.03;;;;;;;-145.79;41.39;77199.22;5241266;28;20175;-70
2023/06/01 15:31:27;;;;;;;14.35;9.75;;;;;;;-145.79;41.92;77214.06;5252372;28;20029;-70
2023/06/01 15:33:58;;;;;;;14.05;10.18;;;;;;;-145.79;41.93;77186.50;5240375;28;20035;-69
2023/06/01 15:36:30;;;;;;;11.48;5.95;;;;;;;-145.79;41.95;77233.16;5240008;28;20033;-70
2023/06/01 15:39:03;;;;;;;8.57;6.35;;;;;;;-145.79;42.31;77262.81;5240487;28;20025;-69
2023/06/01 15:41:35;;;;;;;8.02;4.30;;;;;;;-145.79;42.56;77254.34;5241474;28;20025;-70
2023/06/01 15:44:06;;;;;;;8.10;4.57;;;;;;;-145.79;42.67;77273.41;5243313;28;20171;-70
2023/06/01 15:46:37;;;;;;;14.18;10.57;;;;;;;-145.79;42.91;77233.16;5252175;28;20028;-70
2023/06/01 15:49:09;;;;;;;10.60;6.47;;;;;;;-145.79;42.98;77252.22;5264643;28;20029;-70
2023/06/01 15:51:40;;;;;;;5.00;3.75;;;;;;;-145.79;42.95;77247.97;5265773;28;20453;-68
2023/06/01 15:54:11;;;;;;;6.22;4.10;;;;;;;-145.79;43.18;77267.06;5263308;28;20031;-68
2023/06/01 15:56:43;;;;;;;10.10;7.30;;;;;;;-145.79;42.51;77271.28;5264623;28;20025;-74
2023/06/01 15:59:16;;;;;;;5.15;3.92;;;;;;;-145.79;42.44;77264.94;5265197;28;20126;-74
2023/06/01 16:01:47;;;;;;;6.45;4.50;;;;;;;-145.79;43.40;77281.91;5255941;28;20389;-75
2023/06/01 16:04:19;;;;;;;6.40;4.25;;;;;;;-145.79;43.29;77231.03;5248649;28;20128;-73
2023/06/01 16:06:50;;;;;;;5.88;3.80;;;;;;;-145.79;43.48;77260.69;5264640;28;20103;-73
2023/06/01 16:09:22;;;;;;;4.85;3.60;;;;;;;-145.79;43.47;77252.22;5265401;28;20467;-73
2023/06/01 16:11:53;;;;;;;6.15;3.42;;;;;;;-145.79;43.09;77258.56;5264599;28;20086;-74
2023/06/01 16:14:24;;;;;;;6.20;4.10;;;;;;;-145.79;42.75;77254.34;5258286;28;20029;-75
2023/06/01 16:16:56;;;;;;;7.95;4.18;;;;;;;-145.79;42.74;77245.84;5258020;28;20035;-74
2023/06/01 16:19:28;;;;;;;5.07;3.40;;;;;;;-145.79;43.19;77243.75;5252913;28;20021;-75
2023/06/01 16:22:03;;;;;;;5.32;3.85;;;;;;;-145.79;43.13;77254.34;5243967;28;20045;-74
2023/06/01 16:24:37;;;;;;;6.33;3.50;;;;;;;-145.79;42.59;77231.03;5243484;28;20372;-75
2023/06/01 16:27:09;;;;;;;4.45;3.65;;;;;;;-145.79;42.72;77247.97;5247467;28;20090;-74
2023/06/01 16:29:40;;;;;;;3.50;3.20;;;;;;;-145.79;42.85;77275.53;5254345;28;20025;-74
2023/06/01 16:32:11;;;;;;;6.38;3.92;;;;;;;-145.79;43.17;77275.53;5262944;28;20056;-74
2023/06/01 16:34:43;;;;;;;5.78;3.58;;;;;;;-145.79;43.39;77288.25;5244813;28;20540;-76
2023/06/01 16:37:14;;;;;;;4.50;3.30;;;;;;;-145.79;43.35;77292.50;5244715;28;20062;-75
2023/06/01 16:39:45;;;;;;;3.75;2.90;;;;;;;-145.79;43.56;77286.13;5242990;28;20097;-75
2023/06/01 16:42:22;;;;;;;5.43;3.20;;;;;;;-145.79;43.71;77275.53;5246073;28;20037;-75
2023/06/01 16:44:53;;;;;;;4.10;3.00;;;;;;;-145.79;43.63;77317.94;5260720;28;20025;-75
2023/06/01 16:47:25;;;;;;;7.25;2.38;;;;;;;-145.79;43.57;77284.00;5255204;28;20029;-75
2023/06/01 16:49:56;;;;;;;5.38;2.80;;;;;;;-145.79;43.56;77307.31;5264021;28;20060;-75
2023/06/01 16:52:27;;;;;;;5.63;2.90;;;;;;;-145.79;43.51;77273.41;5243640;28;20440;-75
